Monument, Kansas
Current Conditions -  °F | °C
As of 11:35 AM on Wednesday 26 Nov 2014 (Local Time) from KCBK Reporting Station
Overcast Overcast  
Wind Chill: 25°   Ceiling: 8000
Heat Index: 36°   Visibility: 10mi
Dew Point: 27°   Wind: 21mph
Humidity: 70%   Direction: 330°NNW
Pressure: 30.27"   Gusts: 26mph
Location:  39.1°N, 101.01°W
Report Text: KCBK 261735Z AUTO 33018G23KT 10SM OVC080 02/M03 A3027 RMK AO2
Loading
Personal Weather Stations






























Interactive Weather Map New forecast layout! Learn more

10-Day Weather Forecast

Advertisements
Track Severe Weather on mobile